Time,TemperatureF,DewpointF,PressureIn,WindDirection,WindDirectionDegrees,WindSpeedMPH,WindSpeedGustMPH,Humidity,HourlyPrecipIn,Conditions,Clouds,dailyrainin,SolarRadiationWatts/m^2,SoftwareType,DateUTC
2013-07-16 00:01:00,61.0,49.0,30.22,East,88,29.0,35.0,63,-99.99,,,-99.99,0.000000,,2013-07-16 06:01:00,
2013-07-16 00:11:00,61.0,49.0,30.22,East,89,31.0,36.0,64,-99.99,,,-99.99,0.000000,,2013-07-16 06:11:00,
2013-07-16 00:22:00,61.0,50.0,30.22,East,87,30.0,34.0,65,-99.99,,,-99.99,0.000000,,2013-07-16 06:22:00,
2013-07-16 00:31:00,61.0,50.0,30.22,East,87,30.0,34.0,65,-99.99,,,-99.99,0.000000,,2013-07-16 06:31:00,
2013-07-16 00:43:00,61.0,50.0,30.22,East,87,31.0,35.0,66,-99.99,,,-99.99,0.000000,,2013-07-16 06:43:00,
2013-07-16 01:01:00,61.0,50.0,30.22,East,87,31.0,35.0,66,-99.99,,,-99.99,0.000000,,2013-07-16 07:01:00,
2013-07-16 01:11:00,61.0,50.0,30.22,East,87,31.0,35.0,66,-99.99,,,-99.99,0.000000,,2013-07-16 07:11:00,
2013-07-16 01:22:00,61.0,50.0,30.22,East,84,31.0,36.0,66,-99.99,,,-99.99,0.000000,,2013-07-16 07:22:00,
2013-07-16 01:32:00,61.0,50.0,30.22,East,84,31.0,36.0,66,-99.99,,,-99.99,0.000000,,2013-07-16 07:32:00,
2013-07-16 01:43:00,61.0,50.0,30.22,East,84,31.0,35.0,66,-99.99,,,-99.99,0.000000,,2013-07-16 07:43:00,
2013-07-16 02:01:00,61.0,50.0,30.22,East,84,30.0,34.0,66,-99.99,,,-99.99,0.000000,,2013-07-16 08:01:00,
2013-07-16 02:11:00,61.0,50.0,30.23,East,86,29.0,33.0,67,-99.99,,,-99.99,0.000000,,2013-07-16 08:11:00,
2013-07-16 02:22:00,61.0,50.0,30.24,East,85,25.0,29.0,67,-99.99,,,-99.99,0.000000,,2013-07-16 08:22:00,
2013-07-16 02:32:00,61.0,50.0,30.24,East,85,25.0,29.0,67,-99.99,,,-99.99,0.000000,,2013-07-16 08:32:00,
2013-07-16 02:43:00,60.0,50.0,30.24,East,86,24.0,27.0,68,-99.99,,,-99.99,0.000000,,2013-07-16 08:43:00,
2013-07-16 02:52:00,60.0,50.0,30.23,East,84,24.0,27.0,68,-99.99,,,-99.99,0.000000,,2013-07-16 08:52:00,
2013-07-16 03:01:00,60.0,50.0,30.23,East,84,24.0,27.0,68,-99.99,,,-99.99,0.000000,,2013-07-16 09:01:00,
2013-07-16 03:12:00,60.0,50.0,30.23,East,81,23.0,26.0,69,-99.99,,,-99.99,0.000000,,2013-07-16 09:12:00,
2013-07-16 03:22:00,60.0,50.0,30.23,East,79,20.0,23.0,69,-99.99,,,-99.99,0.000000,,2013-07-16 09:22:00,
2013-07-16 03:32:00,60.0,50.0,30.23,East,79,20.0,23.0,69,-99.99,,,-99.99,0.000000,,2013-07-16 09:32:00,
2013-07-16 03:42:00,60.0,50.0,30.23,East,85,20.0,23.0,70,-99.99,,,-99.99,0.000000,,2013-07-16 09:42:00,
2013-07-16 04:01:00,60.0,50.0,30.23,East,84,18.0,21.0,70,-99.99,,,-99.99,0.000000,,2013-07-16 10:01:00,
2013-07-16 04:11:00,60.0,50.0,30.23,East,81,18.0,20.0,70,-99.99,,,-99.99,0.000000,,2013-07-16 10:11:00,
2013-07-16 04:22:00,60.0,50.0,30.23,East,79,18.0,20.0,70,-99.99,,,-99.99,0.000000,,2013-07-16 10:22:00,
2013-07-16 04:31:00,60.0,50.0,30.23,East,79,18.0,20.0,70,-99.99,,,-99.99,0.000000,,2013-07-16 10:31:00,
2013-07-16 04:43:00,60.0,50.0,30.23,ENE,76,18.0,22.0,70,-99.99,,,-99.99,0.000000,,2013-07-16 10:43:00,
2013-07-16 04:52:00,60.0,50.0,30.23,ENE,77,18.0,20.0,71,-99.99,,,-99.99,0.000000,,2013-07-16 10:52:00,
2013-07-16 05:01:00,60.0,50.0,30.23,ENE,77,18.0,20.0,71,-99.99,,,-99.99,0.000000,,2013-07-16 11:01:00,
2013-07-16 05:11:00,59.0,50.0,30.23,ENE,77,18.0,22.0,72,-99.99,,,-99.99,0.000000,,2013-07-16 11:11:00,
2013-07-16 05:22:00,59.0,51.0,30.23,ENE,74,17.0,19.0,73,-99.99,,,-99.99,0.000000,,2013-07-16 11:22:00,
2013-07-16 05:32:00,59.0,51.0,30.23,ENE,74,17.0,19.0,73,-99.99,,,-99.99,0.000000,,2013-07-16 11:32:00,
2013-07-16 05:42:00,59.0,51.0,30.23,ENE,72,17.0,19.0,75,-99.99,,,-99.99,0.000000,,2013-07-16 11:42:00,
2013-07-16 06:01:00,58.0,51.0,30.23,ENE,69,16.0,18.0,76,-99.99,,,-99.99,0.000000,,2013-07-16 12:01:00,
2013-07-16 06:11:00,58.0,51.0,30.23,ENE,66,15.0,17.0,77,-99.99,,,-99.99,0.000000,,2013-07-16 12:11:00,
2013-07-16 06:32:00,58.0,51.0,30.23,ENE,66,15.0,18.0,77,-99.99,,,-99.99,0.000000,,2013-07-16 12:32:00,
2013-07-16 06:43:00,58.0,51.0,30.24,ENE,64,13.0,15.0,78,-99.99,,,-99.99,4.880000,,2013-07-16 12:43:00,
2013-07-16 07:01:00,58.0,51.0,30.24,ENE,61,13.0,16.0,77,-99.99,,,-99.99,21.620001,,2013-07-16 13:01:00,
2013-07-16 07:11:00,59.0,52.0,30.24,ENE,63,13.0,16.0,76,-99.99,,,-99.99,33.470001,,2013-07-16 13:11:00,
2013-07-16 07:32:00,59.0,52.0,30.25,ENE,65,13.0,16.0,76,-99.99,,,-99.99,39.049999,,2013-07-16 13:32:00,
2013-07-16 07:42:00,59.0,52.0,30.25,ENE,65,13.0,15.0,76,-99.99,,,-99.99,62.759998,,2013-07-16 13:42:00,
2013-07-16 08:01:00,60.0,51.0,30.26,ENE,65,13.0,15.0,74,-99.99,,,-99.99,73.919998,,2013-07-16 14:01:00,
2013-07-16 08:11:00,60.0,51.0,30.26,ENE,66,13.0,16.0,73,-99.99,,,-99.99,80.889999,,2013-07-16 14:11:00,
2013-07-16 08:21:00,60.0,51.0,30.27,ENE,72,15.0,18.0,72,-99.99,,,-99.99,95.529999,,2013-07-16 14:21:00,
2013-07-16 08:32:00,60.0,51.0,30.27,ENE,72,15.0,18.0,72,-99.99,,,-99.99,95.529999,,2013-07-16 14:32:00,
2013-07-16 08:42:00,60.0,51.0,30.27,ENE,75,14.0,17.0,71,-99.99,,,-99.99,105.300003,,2013-07-16 14:42:00,
2013-07-16 09:01:00,60.0,51.0,30.27,ENE,78,16.0,21.0,71,-99.99,,,-99.99,130.399994,,2013-07-16 15:01:00,
2013-07-16 09:11:00,60.0,51.0,30.26,ENE,78,18.0,22.0,70,-99.99,,,-99.99,133.190002,,2013-07-16 15:11:00,
2013-07-16 09:21:00,61.0,51.0,30.26,East,79,20.0,24.0,70,-99.99,,,-99.99,202.919998,,2013-07-16 15:21:00,
2013-07-16 09:32:00,61.0,51.0,30.26,East,79,20.0,24.0,70,-99.99,,,-99.99,202.919998,,2013-07-16 15:32:00,
2013-07-16 09:43:00,61.0,51.0,30.26,ENE,78,23.0,26.0,69,-99.99,,,-99.99,244.759995,,2013-07-16 15:43:00,
2013-07-16 10:01:00,61.0,51.0,30.25,East,82,23.0,26.0,69,-99.99,,,-99.99,271.260010,,2013-07-16 16:01:00,
2013-07-16 10:11:00,61.0,51.0,30.26,East,83,21.0,25.0,68,-99.99,,,-99.99,329.140015,,2013-07-16 16:11:00,
2013-07-16 10:32:00,62.0,51.0,30.26,East,88,20.0,25.0,67,-99.99,,,-99.99,437.929993,,2013-07-16 16:32:00,
2013-07-16 10:43:00,63.0,51.0,30.26,East,91,19.0,23.0,65,-99.99,,,-99.99,651.309998,,2013-07-16 16:43:00,
2013-07-16 10:52:00,63.0,51.0,30.26,East,91,19.0,23.0,65,-99.99,,,-99.99,651.309998,,2013-07-16 16:52:00,
2013-07-16 11:02:00,63.0,51.0,30.26,East,91,19.0,23.0,65,-99.99,,,-99.99,651.309998,,2013-07-16 17:02:00,
2013-07-16 11:12:00,63.0,51.0,30.26,East,91,19.0,23.0,65,-99.99,,,-99.99,651.309998,,2013-07-16 17:12:00,
2013-07-16 13:11:00,70.0,46.0,30.26,ENE,67,17.0,25.0,42,-99.99,,,-99.99,1098.300049,,2013-07-16 19:11:00,
2013-07-16 13:32:00,70.0,46.0,30.26,East,86,17.0,29.0,41,-99.99,,,-99.99,895.380005,,2013-07-16 19:32:00,
2013-07-16 13:43:00,71.0,46.0,30.25,ENE,72,16.0,25.0,39,-99.99,,,-99.99,626.210022,,2013-07-16 19:43:00,
2013-07-16 14:03:00,71.0,46.0,30.25,ENE,76,16.0,26.0,40,-99.99,,,-99.99,562.049988,,2013-07-16 20:03:00,
2013-07-16 14:11:00,72.0,45.0,30.24,East,81,19.0,27.0,38,-99.99,,,-99.99,1056.459961,,2013-07-16 20:11:00,
2013-07-16 14:22:00,72.0,45.0,30.24,East,85,13.0,24.0,37,-99.99,,,-99.99,1064.829956,,2013-07-16 20:22:00,
2013-07-16 14:32:00,72.0,45.0,30.24,East,85,13.0,24.0,37,-99.99,,,-99.99,1064.829956,,2013-07-16 20:32:00,
2013-07-16 14:43:00,72.0,45.0,30.24,East,83,18.0,28.0,38,-99.99,,,-99.99,760.789978,,2013-07-16 20:43:00,
2013-07-16 15:01:00,72.0,45.0,30.24,East,92,16.0,26.0,38,-99.99,,,-99.99,761.489990,,2013-07-16 21:01:00,
2013-07-16 15:11:00,73.0,45.0,30.24,ENE,78,15.0,26.0,37,-99.99,,,-99.99,1009.039978,,2013-07-16 21:11:00,
2013-07-16 15:32:00,73.0,45.0,30.23,East,79,10.0,22.0,37,-99.99,,,-99.99,905.140015,,2013-07-16 21:32:00,
2013-07-16 15:43:00,73.0,45.0,30.23,East,90,15.0,28.0,36,-99.99,,,-99.99,516.719971,,2013-07-16 21:43:00,
2013-07-16 16:01:00,74.0,45.0,30.23,East,85,12.0,19.0,36,-99.99,,,-99.99,411.429993,,2013-07-16 22:01:00,
2013-07-16 16:11:00,73.0,46.0,30.22,ENE,78,17.0,26.0,37,-99.99,,,-99.99,275.450012,,2013-07-16 22:11:00,
2013-07-16 16:33:00,73.0,46.0,30.22,East,90,19.0,24.0,38,-99.99,,,-99.99,357.730011,,2013-07-16 22:33:00,
2013-07-16 16:43:00,73.0,46.0,30.22,East,79,17.0,23.0,38,-99.99,,,-99.99,343.790009,,2013-07-16 22:43:00,
2013-07-16 17:01:00,73.0,46.0,30.22,East,90,15.0,27.0,38,-99.99,,,-99.99,327.750000,,2013-07-16 23:01:00,
2013-07-16 17:11:00,73.0,46.0,30.21,East,81,21.0,28.0,37,-99.99,,,-99.99,336.109985,,2013-07-16 23:11:00,
2013-07-16 17:22:00,73.0,46.0,30.21,East,85,18.0,25.0,37,-99.99,,,-99.99,281.029999,,2013-07-16 23:22:00,
2013-07-16 17:32:00,73.0,46.0,30.21,East,85,18.0,25.0,37,-99.99,,,-99.99,281.029999,,2013-07-16 23:32:00,
2013-07-16 17:43:00,73.0,45.0,30.21,East,83,22.0,29.0,37,-99.99,,,-99.99,158.289993,,2013-07-16 23:43:00,
2013-07-16 18:01:00,73.0,45.0,30.21,East,80,22.0,28.0,37,-99.99,,,-99.99,184.100006,,2013-07-17 00:01:00,
2013-07-16 18:11:00,73.0,45.0,30.20,East,87,24.0,32.0,37,-99.99,,,-99.99,304.730011,,2013-07-17 00:11:00,
2013-07-16 18:22:00,73.0,45.0,30.20,East,82,24.0,31.0,37,-99.99,,,-99.99,205.020004,,2013-07-17 00:22:00,
2013-07-16 18:33:00,73.0,45.0,30.20,East,82,24.0,31.0,37,-99.99,,,-99.99,205.020004,,2013-07-17 00:33:00,
2013-07-16 18:42:00,73.0,45.0,30.20,East,82,24.0,31.0,37,-99.99,,,-99.99,205.020004,,2013-07-17 00:42:00,
2013-07-16 19:01:00,73.0,45.0,30.19,ENE,78,27.0,35.0,37,-99.99,,,-99.99,133.889999,,2013-07-17 01:01:00,
2013-07-16 19:11:00,72.0,45.0,30.19,East,86,29.0,35.0,37,-99.99,,,-99.99,106.690002,,2013-07-17 01:11:00,
2013-07-16 19:22:00,72.0,45.0,30.18,East,80,33.0,39.0,38,-99.99,,,-99.99,107.389999,,2013-07-17 01:22:00,
2013-07-16 19:32:00,72.0,45.0,30.18,East,80,33.0,39.0,38,-99.99,,,-99.99,107.389999,,2013-07-17 01:32:00,
2013-07-16 19:43:00,72.0,45.0,30.19,ENE,78,32.0,39.0,39,-99.99,,,-99.99,150.619995,,2013-07-17 01:43:00,
2013-07-16 20:01:00,71.0,46.0,30.20,ENE,76,31.0,39.0,39,-99.99,,,-99.99,119.940002,,2013-07-17 02:01:00,
2013-07-16 20:11:00,71.0,46.0,30.20,ENE,75,31.0,37.0,40,-99.99,,,-99.99,57.880001,,2013-07-17 02:11:00,
2013-07-16 20:32:00,70.0,45.0,30.21,ENE,76,31.0,35.0,40,-99.99,,,-99.99,18.129999,,2013-07-17 02:32:00,
2013-07-16 20:43:00,70.0,45.0,30.23,ENE,76,28.0,33.0,41,-99.99,,,-99.99,6.280000,,2013-07-17 02:43:00,
2013-07-16 20:53:00,69.0,45.0,30.23,ENE,74,27.0,32.0,41,-99.99,,,-99.99,0.700000,,2013-07-17 02:53:00,
2013-07-16 21:01:00,69.0,45.0,30.23,ENE,74,27.0,32.0,41,-99.99,,,-99.99,0.700000,,2013-07-17 03:01:00,
2013-07-16 21:11:00,69.0,46.0,30.23,ENE,73,26.0,31.0,43,-99.99,,,-99.99,0.000000,,2013-07-17 03:11:00,
2013-07-16 21:22:00,68.0,46.0,30.23,ENE,71,27.0,29.0,45,-99.99,,,-99.99,0.000000,,2013-07-17 03:22:00,
2013-07-16 21:32:00,68.0,46.0,30.23,ENE,71,27.0,29.0,45,-99.99,,,-99.99,0.000000,,2013-07-17 03:32:00,
2013-07-16 21:43:00,68.0,47.0,30.24,ENE,66,23.0,27.0,46,-99.99,,,-99.99,0.000000,,2013-07-17 03:43:00,
2013-07-16 22:01:00,67.0,46.0,30.25,ENE,66,24.0,27.0,47,-99.99,,,-99.99,0.000000,,2013-07-17 04:01:00,
2013-07-16 22:11:00,67.0,47.0,-100.00,ENE,68,22.0,26.0,48,-99.99,,,-99.99,0.000000,,2013-07-17 04:11:00,
2013-07-16 22:22:00,66.0,47.0,-100.00,ENE,70,23.0,26.0,49,-99.99,,,-99.99,0.000000,,2013-07-17 04:22:00,
2013-07-16 22:32:00,66.0,47.0,30.27,ENE,70,23.0,26.0,49,-99.99,,,-99.99,0.000000,,2013-07-17 04:32:00,
2013-07-16 22:43:00,66.0,47.0,30.27,ENE,73,25.0,27.0,50,-99.99,,,-99.99,0.000000,,2013-07-17 04:43:00,
2013-07-16 23:02:00,65.0,47.0,30.27,ENE,72,25.0,28.0,51,-99.99,,,-99.99,0.000000,,2013-07-17 05:02:00,
2013-07-16 23:11:00,66.0,47.0,30.28,ENE,75,27.0,34.0,50,-99.99,,,-99.99,0.000000,,2013-07-17 05:11:00,
2013-07-16 23:22:00,66.0,47.0,30.28,ENE,78,28.0,31.0,49,-99.99,,,-99.99,0.000000,,2013-07-17 05:22:00,
2013-07-16 23:32:00,66.0,47.0,30.28,ENE,78,28.0,31.0,49,-99.99,,,-99.99,0.000000,,2013-07-17 05:32:00,
2013-07-16 23:43:00,65.0,47.0,30.29,ENE,72,25.0,31.0,51,-99.99,,,-99.99,0.000000,,2013-07-17 05:43:00,
2013-07-16 23:52:00,65.0,47.0,30.29,ENE,68,24.0,29.0,51,-99.99,,,-99.99,0.000000,,2013-07-17 05:52:00,